sensor_id;sensor_type;location;lat;lon;timestamp;temperature;humidity
33067;DHT22;19428;49.024;8.366;2023-05-29T00:02:04;14.10;46.80
33067;DHT22;19428;49.024;8.366;2023-05-29T00:04:30;14.00;47.30
33067;DHT22;19428;49.024;8.366;2023-05-29T00:06:55;14.10;49.70
33067;DHT22;19428;49.024;8.366;2023-05-29T00:09:21;13.90;50.10
33067;DHT22;19428;49.024;8.366;2023-05-29T00:11:47;13.90;51.30
33067;DHT22;19428;49.024;8.366;2023-05-29T00:14:17;13.90;51.80
33067;DHT22;19428;49.024;8.366;2023-05-29T00:16:45;13.90;51.80
33067;DHT22;19428;49.024;8.366;2023-05-29T00:19:12;13.90;53.20
33067;DHT22;19428;49.024;8.366;2023-05-29T00:21:39;14.00;53.00
33067;DHT22;19428;49.024;8.366;2023-05-29T00:24:05;14.10;52.80
33067;DHT22;19428;49.024;8.366;2023-05-29T00:26:30;14.10;51.60
33067;DHT22;19428;49.024;8.366;2023-05-29T00:28:56;13.80;51.50
33067;DHT22;19428;49.024;8.366;2023-05-29T00:31:22;13.70;53.20
33067;DHT22;19428;49.024;8.366;2023-05-29T00:33:48;13.60;54.90
33067;DHT22;19428;49.024;8.366;2023-05-29T00:36:13;13.50;55.60
33067;DHT22;19428;49.024;8.366;2023-05-29T00:38:39;13.70;57.00
33067;DHT22;19428;49.024;8.366;2023-05-29T00:41:05;13.60;56.00
33067;DHT22;19428;49.024;8.366;2023-05-29T00:43:30;13.50;56.60
33067;DHT22;19428;49.024;8.366;2023-05-29T00:45:56;13.30;59.60
33067;DHT22;19428;49.024;8.366;2023-05-29T00:48:22;13.20;61.30
33067;DHT22;19428;49.024;8.366;2023-05-29T00:50:48;13.20;65.60
33067;DHT22;19428;49.024;8.366;2023-05-29T00:53:14;13.00;68.60
33067;DHT22;19428;49.024;8.366;2023-05-29T00:55:41;13.00;70.60
33067;DHT22;19428;49.024;8.366;2023-05-29T00:58:06;12.90;75.00
33067;DHT22;19428;49.024;8.366;2023-05-29T01:00:32;12.90;78.60
33067;DHT22;19428;49.024;8.366;2023-05-29T01:03:00;13.00;76.30
33067;DHT22;19428;49.024;8.366;2023-05-29T01:05:31;13.00;78.50
33067;DHT22;19428;49.024;8.366;2023-05-29T01:07:57;13.00;74.70
33067;DHT22;19428;49.024;8.366;2023-05-29T01:10:23;13.30;72.50
33067;DHT22;19428;49.024;8.366;2023-05-29T01:13:01;13.20;71.10
33067;DHT22;19428;49.024;8.366;2023-05-29T01:28:48;13.30;58.90
33067;DHT22;19428;49.024;8.366;2023-05-29T01:31:18;13.30;60.00
33067;DHT22;19428;49.024;8.366;2023-05-29T01:33:52;13.40;59.00
33067;DHT22;19428;49.024;8.366;2023-05-29T01:36:18;13.60;56.80
33067;DHT22;19428;49.024;8.366;2023-05-29T01:38:44;13.90;52.80
33067;DHT22;19428;49.024;8.366;2023-05-29T01:41:10;14.00;50.40
33067;DHT22;19428;49.024;8.366;2023-05-29T01:43:36;13.70;51.70
33067;DHT22;19428;49.024;8.366;2023-05-29T01:46:02;13.30;54.70
33067;DHT22;19428;49.024;8.366;2023-05-29T01:48:28;13.00;56.90
33067;DHT22;19428;49.024;8.366;2023-05-29T01:50:54;12.90;60.50
33067;DHT22;19428;49.024;8.366;2023-05-29T01:53:20;13.00;63.10
33067;DHT22;19428;49.024;8.366;2023-05-29T01:55:48;13.30;63.50
33067;DHT22;19428;49.024;8.366;2023-05-29T01:58:15;13.40;59.50
33067;DHT22;19428;49.024;8.366;2023-05-29T02:00:41;13.60;58.00
33067;DHT22;19428;49.024;8.366;2023-05-29T02:03:07;13.40;56.90
33067;DHT22;19428;49.024;8.366;2023-05-29T02:05:33;13.00;58.90
33067;DHT22;19428;49.024;8.366;2023-05-29T02:07:58;12.70;62.40
33067;DHT22;19428;49.024;8.366;2023-05-29T02:10:24;12.60;67.20
33067;DHT22;19428;49.024;8.366;2023-05-29T02:12:50;12.40;71.60
33067;DHT22;19428;49.024;8.366;2023-05-29T02:15:15;12.50;76.10
33067;DHT22;19428;49.024;8.366;2023-05-29T02:17:41;12.30;79.90
33067;DHT22;19428;49.024;8.366;2023-05-29T02:20:07;12.20;85.40
33067;DHT22;19428;49.024;8.366;2023-05-29T02:22:33;12.20;89.20
33067;DHT22;19428;49.024;8.366;2023-05-29T02:24:58;12.30;90.90
33067;DHT22;19428;49.024;8.366;2023-05-29T02:27:24;12.30;89.20
33067;DHT22;19428;49.024;8.366;2023-05-29T02:29:50;12.20;91.90
33067;DHT22;19428;49.024;8.366;2023-05-29T02:32:15;12.30;93.10
33067;DHT22;19428;49.024;8.366;2023-05-29T02:34:41;12.50;90.40
33067;DHT22;19428;49.024;8.366;2023-05-29T02:37:06;12.90;80.00
33067;DHT22;19428;49.024;8.366;2023-05-29T02:39:32;13.20;70.80
33067;DHT22;19428;49.024;8.366;2023-05-29T02:41:57;13.20;68.90
33067;DHT22;19428;49.024;8.366;2023-05-29T02:44:23;13.40;66.40
33067;DHT22;19428;49.024;8.366;2023-05-29T02:46:49;13.40;64.40
33067;DHT22;19428;49.024;8.366;2023-05-29T02:49:14;13.50;63.40
33067;DHT22;19428;49.024;8.366;2023-05-29T02:51:40;13.50;62.40
33067;DHT22;19428;49.024;8.366;2023-05-29T02:54:05;13.50;61.00
33067;DHT22;19428;49.024;8.366;2023-05-29T02:56:31;13.60;59.90
33067;DHT22;19428;49.024;8.366;2023-05-29T02:58:56;13.50;59.70
33067;DHT22;19428;49.024;8.366;2023-05-29T03:01:22;13.50;59.90
33067;DHT22;19428;49.024;8.366;2023-05-29T03:03:48;13.50;59.70
33067;DHT22;19428;49.024;8.366;2023-05-29T03:06:18;13.30;60.50
33067;DHT22;19428;49.024;8.366;2023-05-29T03:08:44;13.20;61.50
33067;DHT22;19428;49.024;8.366;2023-05-29T03:11:11;13.20;63.30
33067;DHT22;19428;49.024;8.366;2023-05-29T03:13:37;13.10;62.40
33067;DHT22;19428;49.024;8.366;2023-05-29T03:16:03;13.10;63.60
33067;DHT22;19428;49.024;8.366;2023-05-29T03:18:29;13.10;62.70
33067;DHT22;19428;49.024;8.366;2023-05-29T03:20:54;13.10;63.00
33067;DHT22;19428;49.024;8.366;2023-05-29T03:23:20;13.20;62.30
33067;DHT22;19428;49.024;8.366;2023-05-29T03:25:46;13.10;62.90
33067;DHT22;19428;49.024;8.366;2023-05-29T03:28:11;13.10;63.40
33067;DHT22;19428;49.024;8.366;2023-05-29T03:30:37;13.20;63.60
33067;DHT22;19428;49.024;8.366;2023-05-29T03:33:03;13.20;64.20
33067;DHT22;19428;49.024;8.366;2023-05-29T03:35:29;13.10;64.40
33067;DHT22;19428;49.024;8.366;2023-05-29T03:37:55;13.10;64.60
33067;DHT22;19428;49.024;8.366;2023-05-29T03:40:21;13.00;66.80
33067;DHT22;19428;49.024;8.366;2023-05-29T03:42:46;12.90;67.80
33067;DHT22;19428;49.024;8.366;2023-05-29T03:45:12;12.90;68.50
33067;DHT22;19428;49.024;8.366;2023-05-29T03:47:37;12.90;68.90
33067;DHT22;19428;49.024;8.366;2023-05-29T03:50:03;12.80;69.30
33067;DHT22;19428;49.024;8.366;2023-05-29T03:52:29;12.80;70.90
33067;DHT22;19428;49.024;8.366;2023-05-29T03:54:54;12.70;71.70
33067;DHT22;19428;49.024;8.366;2023-05-29T03:57:20;12.80;73.60
33067;DHT22;19428;49.024;8.366;2023-05-29T03:59:46;12.90;72.70
33067;DHT22;19428;49.024;8.366;2023-05-29T04:02:11;12.90;71.10
33067;DHT22;19428;49.024;8.366;2023-05-29T04:04:37;13.00;70.60
33067;DHT22;19428;49.024;8.366;2023-05-29T04:07:05;13.10;69.40
33067;DHT22;19428;49.024;8.366;2023-05-29T04:09:32;13.10;67.80
33067;DHT22;19428;49.024;8.366;2023-05-29T04:11:58;13.20;65.80
33067;DHT22;19428;49.024;8.366;2023-05-29T04:14:25;13.20;64.90
33067;DHT22;19428;49.024;8.366;2023-05-29T04:16:50;13.30;64.80
33067;DHT22;19428;49.024;8.366;2023-05-29T04:19:16;13.30;62.80
33067;DHT22;19428;49.024;8.366;2023-05-29T04:21:41;13.30;62.70
33067;DHT22;19428;49.024;8.366;2023-05-29T04:24:07;13.30;62.10
33067;DHT22;19428;49.024;8.366;2023-05-29T04:26:33;13.30;61.30
33067;DHT22;19428;49.024;8.366;2023-05-29T04:28:59;13.40;61.30
33067;DHT22;19428;49.024;8.366;2023-05-29T04:31:25;13.40;60.60
33067;DHT22;19428;49.024;8.366;2023-05-29T04:33:54;13.50;61.10
33067;DHT22;19428;49.024;8.366;2023-05-29T04:36:27;13.60;59.30
33067;DHT22;19428;49.024;8.366;2023-05-29T04:38:53;13.70;58.80
33067;DHT22;19428;49.024;8.366;2023-05-29T04:41:19;13.70;58.20
33067;DHT22;19428;49.024;8.366;2023-05-29T04:43:49;13.80;57.90
33067;DHT22;19428;49.024;8.366;2023-05-29T04:46:15;14.00;56.50
33067;DHT22;19428;49.024;8.366;2023-05-29T04:48:40;14.10;55.40
33067;DHT22;19428;49.024;8.366;2023-05-29T04:51:06;14.00;55.10
33067;DHT22;19428;49.024;8.366;2023-05-29T04:53:32;14.10;54.30
33067;DHT22;19428;49.024;8.366;2023-05-29T04:55:58;14.20;53.60
33067;DHT22;19428;49.024;8.366;2023-05-29T04:58:26;14.30;53.00
33067;DHT22;19428;49.024;8.366;2023-05-29T05:00:52;14.40;52.80
33067;DHT22;19428;49.024;8.366;2023-05-29T05:03:18;14.40;51.50
33067;DHT22;19428;49.024;8.366;2023-05-29T05:05:43;14.40;51.70
33067;DHT22;19428;49.024;8.366;2023-05-29T05:08:10;14.60;50.80
33067;DHT22;19428;49.024;8.366;2023-05-29T05:10:37;14.70;50.50
33067;DHT22;19428;49.024;8.366;2023-05-29T05:13:03;14.90;49.30
33067;DHT22;19428;49.024;8.366;2023-05-29T05:15:28;14.90;48.30
33067;DHT22;19428;49.024;8.366;2023-05-29T05:17:54;14.80;48.60
33067;DHT22;19428;49.024;8.366;2023-05-29T05:20:19;15.10;46.80
33067;DHT22;19428;49.024;8.366;2023-05-29T05:22:45;15.10;45.60
33067;DHT22;19428;49.024;8.366;2023-05-29T05:25:11;15.30;45.30
33067;DHT22;19428;49.024;8.366;2023-05-29T05:27:37;15.30;44.40
33067;DHT22;19428;49.024;8.366;2023-05-29T05:30:03;15.50;45.40
33067;DHT22;19428;49.024;8.366;2023-05-29T05:32:29;15.40;45.30
33067;DHT22;19428;49.024;8.366;2023-05-29T05:34:55;15.40;43.60
33067;DHT22;19428;49.024;8.366;2023-05-29T05:37:21;15.50;43.50
33067;DHT22;19428;49.024;8.366;2023-05-29T05:39:51;15.70;43.30
33067;DHT22;19428;49.024;8.366;2023-05-29T05:42:19;15.60;42.20
33067;DHT22;19428;49.024;8.366;2023-05-29T05:44:44;15.70;41.90
33067;DHT22;19428;49.024;8.366;2023-05-29T05:47:10;15.70;41.40
33067;DHT22;19428;49.024;8.366;2023-05-29T05:49:36;16.00;40.50
33067;DHT22;19428;49.024;8.366;2023-05-29T05:52:01;16.00;40.00
33067;DHT22;19428;49.024;8.366;2023-05-29T05:54:27;16.30;39.10
33067;DHT22;19428;49.024;8.366;2023-05-29T05:56:52;16.30;36.80
33067;DHT22;19428;49.024;8.366;2023-05-29T05:59:18;16.40;35.50
33067;DHT22;19428;49.024;8.366;2023-05-29T06:01:44;16.40;34.50
33067;DHT22;19428;49.024;8.366;2023-05-29T06:04:09;16.70;34.30
33067;DHT22;19428;49.024;8.366;2023-05-29T06:06:37;16.50;34.50
33067;DHT22;19428;49.024;8.366;2023-05-29T06:09:02;16.50;32.90
33067;DHT22;19428;49.024;8.366;2023-05-29T06:11:30;16.40;32.20
33067;DHT22;19428;49.024;8.366;2023-05-29T06:13:55;16.40;31.60
33067;DHT22;19428;49.024;8.366;2023-05-29T06:16:21;16.70;31.50
33067;DHT22;19428;49.024;8.366;2023-05-29T06:18:47;16.90;33.10
33067;DHT22;19428;49.024;8.366;2023-05-29T06:21:12;17.30;29.50
33067;DHT22;19428;49.024;8.366;2023-05-29T06:23:39;17.60;30.40
33067;DHT22;19428;49.024;8.366;2023-05-29T06:26:04;17.40;28.30
33067;DHT22;19428;49.024;8.366;2023-05-29T06:28:30;17.30;28.90
33067;DHT22;19428;49.024;8.366;2023-05-29T06:30:56;17.50;28.40
33067;DHT22;19428;49.024;8.366;2023-05-29T06:33:21;17.70;27.40
33067;DHT22;19428;49.024;8.366;2023-05-29T06:35:47;18.00;27.80
33067;DHT22;19428;49.024;8.366;2023-05-29T06:38:14;18.40;28.20
33067;DHT22;19428;49.024;8.366;2023-05-29T06:40:40;18.70;26.80
33067;DHT22;19428;49.024;8.366;2023-05-29T06:43:05;18.40;25.20
33067;DHT22;19428;49.024;8.366;2023-05-29T06:45:31;18.20;22.00
33067;DHT22;19428;49.024;8.366;2023-05-29T06:47:57;18.20;21.40
33067;DHT22;19428;49.024;8.366;2023-05-29T06:50:22;18.40;20.90
33067;DHT22;19428;49.024;8.366;2023-05-29T06:52:48;18.50;20.40
33067;DHT22;19428;49.024;8.366;2023-05-29T06:55:14;18.80;19.90
33067;DHT22;19428;49.024;8.366;2023-05-29T06:57:39;18.90;19.50
33067;DHT22;19428;49.024;8.366;2023-05-29T07:00:06;19.10;19.00
33067;DHT22;19428;49.024;8.366;2023-05-29T07:02:33;18.70;16.40
33067;DHT22;19428;49.024;8.366;2023-05-29T07:04:58;18.90;16.40
33067;DHT22;19428;49.024;8.366;2023-05-29T07:07:24;19.30;15.20
33067;DHT22;19428;49.024;8.366;2023-05-29T07:09:49;19.10;14.00
33067;DHT22;19428;49.024;8.366;2023-05-29T07:12:15;19.00;11.70
33067;DHT22;19428;49.024;8.366;2023-05-29T07:14:41;18.90;10.80
33067;DHT22;19428;49.024;8.366;2023-05-29T07:17:06;18.90;12.80
33067;DHT22;19428;49.024;8.366;2023-05-29T07:19:32;19.10;11.90
33067;DHT22;19428;49.024;8.366;2023-05-29T07:21:59;18.70;11.10
33067;DHT22;19428;49.024;8.366;2023-05-29T07:24:25;18.80;12.30
33067;DHT22;19428;49.024;8.366;2023-05-29T07:26:51;19.10;12.50
33067;DHT22;19428;49.024;8.366;2023-05-29T07:29:16;19.30;16.00
33067;DHT22;19428;49.024;8.366;2023-05-29T07:31:43;19.30;13.00
33067;DHT22;19428;49.024;8.366;2023-05-29T07:34:09;19.10;13.90
33067;DHT22;19428;49.024;8.366;2023-05-29T07:36:35;19.40;13.00
33067;DHT22;19428;49.024;8.366;2023-05-29T07:39:02;19.10;12.90
33067;DHT22;19428;49.024;8.366;2023-05-29T07:41:27;19.10;13.90
33067;DHT22;19428;49.024;8.366;2023-05-29T07:43:53;19.20;12.00
33067;DHT22;19428;49.024;8.366;2023-05-29T07:46:21;19.20;13.50
33067;DHT22;19428;49.024;8.366;2023-05-29T07:48:46;19.20;16.10
33067;DHT22;19428;49.024;8.366;2023-05-29T07:51:12;19.60;16.10
33067;DHT22;19428;49.024;8.366;2023-05-29T07:53:38;19.80;12.30
33067;DHT22;19428;49.024;8.366;2023-05-29T07:56:04;19.60;13.40
33067;DHT22;19428;49.024;8.366;2023-05-29T07:58:29;20.00;13.20
33067;DHT22;19428;49.024;8.366;2023-05-29T08:00:56;19.70;11.60
33067;DHT22;19428;49.024;8.366;2023-05-29T08:03:22;19.90;11.90
33067;DHT22;19428;49.024;8.366;2023-05-29T08:05:47;19.50;11.80
33067;DHT22;19428;49.024;8.366;2023-05-29T08:08:13;19.80;13.10
33067;DHT22;19428;49.024;8.366;2023-05-29T08:10:39;19.70;12.20
33067;DHT22;19428;49.024;8.366;2023-05-29T08:13:07;19.90;11.80
33067;DHT22;19428;49.024;8.366;2023-05-29T08:15:33;19.90;13.60
33067;DHT22;19428;49.024;8.366;2023-05-29T08:17:58;20.00;10.80
33067;DHT22;19428;49.024;8.366;2023-05-29T08:20:24;20.10;10.70
33067;DHT22;19428;49.024;8.366;2023-05-29T08:22:49;20.10;12.40
33067;DHT22;19428;49.024;8.366;2023-05-29T08:25:15;19.90;10.60
33067;DHT22;19428;49.024;8.366;2023-05-29T08:27:40;20.10;11.00
33067;DHT22;19428;49.024;8.366;2023-05-29T08:30:06;20.30;10.60
33067;DHT22;19428;49.024;8.366;2023-05-29T08:32:32;20.40;10.50
33067;DHT22;19428;49.024;8.366;2023-05-29T08:34:58;20.50;8.90
33067;DHT22;19428;49.024;8.366;2023-05-29T08:37:23;20.70;12.30
33067;DHT22;19428;49.024;8.366;2023-05-29T08:39:50;20.90;8.30
33067;DHT22;19428;49.024;8.366;2023-05-29T08:42:29;20.50;7.40
33067;DHT22;19428;49.024;8.366;2023-05-29T08:45:02;20.60;8.30
33067;DHT22;19428;49.024;8.366;2023-05-29T08:47:33;21.00;8.40
33067;DHT22;19428;49.024;8.366;2023-05-29T08:50:00;21.40;6.40
33067;DHT22;19428;49.024;8.366;2023-05-29T08:52:26;21.40;8.40
33067;DHT22;19428;49.024;8.366;2023-05-29T08:54:55;21.50;4.90
33067;DHT22;19428;49.024;8.366;2023-05-29T08:57:23;21.00;3.40
33067;DHT22;19428;49.024;8.366;2023-05-29T08:59:51;21.30;5.30
33067;DHT22;19428;49.024;8.366;2023-05-29T09:02:19;21.60;6.50
33067;DHT22;19428;49.024;8.366;2023-05-29T09:04:45;21.80;4.20
33067;DHT22;19428;49.024;8.366;2023-05-29T09:07:15;21.40;2.40
33067;DHT22;19428;49.024;8.366;2023-05-29T09:09:40;21.40;4.70
33067;DHT22;19428;49.024;8.366;2023-05-29T09:12:06;21.60;4.40
33067;DHT22;19428;49.024;8.366;2023-05-29T09:16:59;21.90;3.50
33067;DHT22;19428;49.024;8.366;2023-05-29T09:19:25;21.70;1.20
33067;DHT22;19428;49.024;8.366;2023-05-29T09:21:51;21.80;2.40
33067;DHT22;19428;49.024;8.366;2023-05-29T09:24:19;21.80;2.70
33067;DHT22;19428;49.024;8.366;2023-05-29T09:26:51;22.10;1.60
33067;DHT22;19428;49.024;8.366;2023-05-29T09:29:21;22.10;1.00
33067;DHT22;19428;49.024;8.366;2023-05-29T09:32:11;22.00;1.00
33067;DHT22;19428;49.024;8.366;2023-05-29T09:34:38;22.30;1.20
33067;DHT22;19428;49.024;8.366;2023-05-29T09:37:05;22.60;1.00
33067;DHT22;19428;49.024;8.366;2023-05-29T09:39:54;22.70;1.00
33067;DHT22;19428;49.024;8.366;2023-05-29T09:42:20;22.70;1.00
33067;DHT22;19428;49.024;8.366;2023-05-29T09:44:49;22.50;1.00
33067;DHT22;19428;49.024;8.366;2023-05-29T09:47:19;22.50;1.00
33067;DHT22;19428;49.024;8.366;2023-05-29T09:49:49;22.60;1.00
33067;DHT22;19428;49.024;8.366;2023-05-29T09:52:21;22.90;1.00
33067;DHT22;19428;49.024;8.366;2023-05-29T09:54:47;22.70;1.00
33067;DHT22;19428;49.024;8.366;2023-05-29T09:57:14;23.10;1.00
33067;DHT22;19428;49.024;8.366;2023-05-29T09:59:43;23.40;1.00
33067;DHT22;19428;49.024;8.366;2023-05-29T10:02:10;23.30;1.00
33067;DHT22;19428;49.024;8.366;2023-05-29T10:04:37;22.80;1.00
33067;DHT22;19428;49.024;8.366;2023-05-29T10:07:10;23.30;1.00
33067;DHT22;19428;49.024;8.366;2023-05-29T10:09:42;23.30;1.00
33067;DHT22;19428;49.024;8.366;2023-05-29T10:12:11;23.40;1.00
33067;DHT22;19428;49.024;8.366;2023-05-29T10:14:37;23.60;1.00
33067;DHT22;19428;49.024;8.366;2023-05-29T10:17:07;23.30;1.00
33067;DHT22;19428;49.024;8.366;2023-05-29T10:19:36;23.20;1.00
33067;DHT22;19428;49.024;8.366;2023-05-29T10:22:04;23.90;1.00
33067;DHT22;19428;49.024;8.366;2023-05-29T10:24:32;23.70;1.00
33067;DHT22;19428;49.024;8.366;2023-05-29T10:26:58;23.80;1.00
33067;DHT22;19428;49.024;8.366;2023-05-29T10:29:26;23.70;1.00
33067;DHT22;19428;49.024;8.366;2023-05-29T10:32:06;23.60;1.00
33067;DHT22;19428;49.024;8.366;2023-05-29T10:34:45;23.50;1.00
33067;DHT22;19428;49.024;8.366;2023-05-29T10:37:27;23.80;1.00
33067;DHT22;19428;49.024;8.366;2023-05-29T10:40:03;24.10;1.00
33067;DHT22;19428;49.024;8.366;2023-05-29T10:42:46;24.40;1.00
33067;DHT22;19428;49.024;8.366;2023-05-29T10:47:53;24.00;1.00
33067;DHT22;19428;49.024;8.366;2023-05-29T10:53:01;24.70;1.00
33067;DHT22;19428;49.024;8.366;2023-05-29T10:55:34;24.50;1.00
33067;DHT22;19428;49.024;8.366;2023-05-29T10:58:21;24.70;1.00
33067;DHT22;19428;49.024;8.366;2023-05-29T11:00:50;24.70;1.00
33067;DHT22;19428;49.024;8.366;2023-05-29T11:03:23;24.50;1.00
33067;DHT22;19428;49.024;8.366;2023-05-29T11:05:59;24.90;1.00
33067;DHT22;19428;49.024;8.366;2023-05-29T11:08:34;24.50;1.00
33067;DHT22;19428;49.024;8.366;2023-05-29T11:11:01;24.60;1.00
33067;DHT22;19428;49.024;8.366;2023-05-29T11:13:34;24.60;1.00
33067;DHT22;19428;49.024;8.366;2023-05-29T11:18:30;24.60;1.00
33067;DHT22;19428;49.024;8.366;2023-05-29T11:21:03;25.10;1.00
33067;DHT22;19428;49.024;8.366;2023-05-29T11:23:37;25.10;1.00
33067;DHT22;19428;49.024;8.366;2023-05-29T11:26:07;25.20;1.00
33067;DHT22;19428;49.024;8.366;2023-05-29T11:28:33;25.10;1.00
33067;DHT22;19428;49.024;8.366;2023-05-29T11:30:59;25.20;1.00
33067;DHT22;19428;49.024;8.366;2023-05-29T11:33:30;25.40;1.00
33067;DHT22;19428;49.024;8.366;2023-05-29T11:36:01;25.60;1.00
33067;DHT22;19428;49.024;8.366;2023-05-29T11:38:28;25.70;1.00
33067;DHT22;19428;49.024;8.366;2023-05-29T11:40:54;25.90;1.00
33067;DHT22;19428;49.024;8.366;2023-05-29T11:43:21;26.30;1.00
33067;DHT22;19428;49.024;8.366;2023-05-29T11:45:47;25.80;1.00
33067;DHT22;19428;49.024;8.366;2023-05-29T11:48:13;26.00;1.00
33067;DHT22;19428;49.024;8.366;2023-05-29T11:50:39;26.40;1.00
33067;DHT22;19428;49.024;8.366;2023-05-29T11:53:06;26.30;1.00
33067;DHT22;19428;49.024;8.366;2023-05-29T11:55:32;26.10;1.00
33067;DHT22;19428;49.024;8.366;2023-05-29T11:58:04;26.60;1.00
33067;DHT22;19428;49.024;8.366;2023-05-29T12:00:34;27.40;1.00
33067;DHT22;19428;49.024;8.366;2023-05-29T12:03:01;26.40;1.00
33067;DHT22;19428;49.024;8.366;2023-05-29T12:05:47;26.40;1.00
33067;DHT22;19428;49.024;8.366;2023-05-29T12:08:14;25.90;1.00
33067;DHT22;19428;49.024;8.366;2023-05-29T12:10:47;26.00;1.00
33067;DHT22;19428;49.024;8.366;2023-05-29T12:13:13;25.80;1.00
33067;DHT22;19428;49.024;8.366;2023-05-29T12:15:40;25.90;1.00
33067;DHT22;19428;49.024;8.366;2023-05-29T12:18:05;26.40;1.00
33067;DHT22;19428;49.024;8.366;2023-05-29T12:20:31;26.20;1.00
33067;DHT22;19428;49.024;8.366;2023-05-29T12:23:01;26.00;1.00
33067;DHT22;19428;49.024;8.366;2023-05-29T12:25:27;26.50;1.00
33067;DHT22;19428;49.024;8.366;2023-05-29T12:27:55;25.80;1.00
33067;DHT22;19428;49.024;8.366;2023-05-29T12:30:22;26.10;1.00
33067;DHT22;19428;49.024;8.366;2023-05-29T12:32:52;26.30;1.00
33067;DHT22;19428;49.024;8.366;2023-05-29T12:37:46;26.30;1.00
33067;DHT22;19428;49.024;8.366;2023-05-29T12:40:19;26.60;1.00
33067;DHT22;19428;49.024;8.366;2023-05-29T12:42:53;26.00;1.00
33067;DHT22;19428;49.024;8.366;2023-05-29T12:45:20;26.80;1.00
33067;DHT22;19428;49.024;8.366;2023-05-29T12:50:20;27.00;1.00
33067;DHT22;19428;49.024;8.366;2023-05-29T12:53:05;26.60;1.00
33067;DHT22;19428;49.024;8.366;2023-05-29T12:55:33;27.60;1.00
33067;DHT22;19428;49.024;8.366;2023-05-29T12:58:02;26.70;1.00
33067;DHT22;19428;49.024;8.366;2023-05-29T13:00:28;26.70;1.00
33067;DHT22;19428;49.024;8.366;2023-05-29T13:02:54;26.30;1.00
33067;DHT22;19428;49.024;8.366;2023-05-29T13:05:20;26.40;1.00
33067;DHT22;19428;49.024;8.366;2023-05-29T13:07:48;26.70;1.00
33067;DHT22;19428;49.024;8.366;2023-05-29T13:10:14;26.80;1.00
33067;DHT22;19428;49.024;8.366;2023-05-29T13:12:41;27.10;1.00
33067;DHT22;19428;49.024;8.366;2023-05-29T13:15:08;27.20;1.00
33067;DHT22;19428;49.024;8.366;2023-05-29T13:17:33;26.50;1.00
33067;DHT22;19428;49.024;8.366;2023-05-29T13:19:59;27.20;1.00
33067;DHT22;19428;49.024;8.366;2023-05-29T13:22:25;27.20;1.00
33067;DHT22;19428;49.024;8.366;2023-05-29T13:24:59;26.80;1.00
33067;DHT22;19428;49.024;8.366;2023-05-29T13:27:25;27.00;1.00
33067;DHT22;19428;49.024;8.366;2023-05-29T13:29:52;27.80;1.00
33067;DHT22;19428;49.024;8.366;2023-05-29T13:32:17;26.70;1.00
33067;DHT22;19428;49.024;8.366;2023-05-29T13:34:43;26.80;1.00
33067;DHT22;19428;49.024;8.366;2023-05-29T13:37:09;26.80;1.00
33067;DHT22;19428;49.024;8.366;2023-05-29T13:39:34;26.80;1.00
33067;DHT22;19428;49.024;8.366;2023-05-29T13:42:00;26.70;1.00
33067;DHT22;19428;49.024;8.366;2023-05-29T13:44:26;26.40;1.00
33067;DHT22;19428;49.024;8.366;2023-05-29T13:46:52;27.30;1.00
33067;DHT22;19428;49.024;8.366;2023-05-29T13:49:18;27.80;1.00
33067;DHT22;19428;49.024;8.366;2023-05-29T13:51:44;27.30;1.00
33067;DHT22;19428;49.024;8.366;2023-05-29T13:54:12;27.10;1.00
33067;DHT22;19428;49.024;8.366;2023-05-29T13:56:37;27.60;1.00
33067;DHT22;19428;49.024;8.366;2023-05-29T13:59:03;27.10;1.00
33067;DHT22;19428;49.024;8.366;2023-05-29T14:01:32;26.80;1.00
33067;DHT22;19428;49.024;8.366;2023-05-29T14:03:59;26.40;1.00
33067;DHT22;19428;49.024;8.366;2023-05-29T14:06:25;26.80;1.00
33067;DHT22;19428;49.024;8.366;2023-05-29T14:08:50;26.90;1.00
33067;DHT22;19428;49.024;8.366;2023-05-29T14:11:16;27.40;1.00
33067;DHT22;19428;49.024;8.366;2023-05-29T14:13:42;27.50;1.00
33067;DHT22;19428;49.024;8.366;2023-05-29T14:16:07;27.40;1.00
33067;DHT22;19428;49.024;8.366;2023-05-29T14:18:33;27.10;1.00
33067;DHT22;19428;49.024;8.366;2023-05-29T14:20:59;26.80;1.00
33067;DHT22;19428;49.024;8.366;2023-05-29T14:23:24;26.60;1.00
33067;DHT22;19428;49.024;8.366;2023-05-29T14:25:50;26.90;1.00
33067;DHT22;19428;49.024;8.366;2023-05-29T14:28:16;27.10;1.00
33067;DHT22;19428;49.024;8.366;2023-05-29T14:30:42;26.90;1.00
33067;DHT22;19428;49.024;8.366;2023-05-29T14:33:08;27.20;1.00
33067;DHT22;19428;49.024;8.366;2023-05-29T14:35:34;27.40;1.00
33067;DHT22;19428;49.024;8.366;2023-05-29T14:38:00;27.10;1.00
33067;DHT22;19428;49.024;8.366;2023-05-29T14:40:26;27.20;1.00
33067;DHT22;19428;49.024;8.366;2023-05-29T14:42:51;27.80;1.00
33067;DHT22;19428;49.024;8.366;2023-05-29T14:45:17;28.00;1.00
33067;DHT22;19428;49.024;8.366;2023-05-29T14:47:42;28.00;1.00
33067;DHT22;19428;49.024;8.366;2023-05-29T14:50:09;27.90;1.00
33067;DHT22;19428;49.024;8.366;2023-05-29T14:52:34;27.30;1.00
33067;DHT22;19428;49.024;8.366;2023-05-29T14:55:04;27.30;1.00
33067;DHT22;19428;49.024;8.366;2023-05-29T14:57:30;27.20;1.00
33067;DHT22;19428;49.024;8.366;2023-05-29T15:00:00;27.70;1.00
33067;DHT22;19428;49.024;8.366;2023-05-29T15:02:26;27.70;1.00
33067;DHT22;19428;49.024;8.366;2023-05-29T15:04:52;27.90;1.00
33067;DHT22;19428;49.024;8.366;2023-05-29T15:07:17;27.80;1.00
33067;DHT22;19428;49.024;8.366;2023-05-29T15:09:43;27.50;1.00
33067;DHT22;19428;49.024;8.366;2023-05-29T15:12:09;27.70;1.00
33067;DHT22;19428;49.024;8.366;2023-05-29T15:14:35;27.60;1.00
33067;DHT22;19428;49.024;8.366;2023-05-29T15:17:01;27.50;1.00
33067;DHT22;19428;49.024;8.366;2023-05-29T15:19:27;27.70;1.00
33067;DHT22;19428;49.024;8.366;2023-05-29T15:21:53;28.20;1.00
33067;DHT22;19428;49.024;8.366;2023-05-29T15:24:18;28.40;1.00
33067;DHT22;19428;49.024;8.366;2023-05-29T15:26:44;27.30;1.00
33067;DHT22;19428;49.024;8.366;2023-05-29T15:29:10;27.30;1.00
33067;DHT22;19428;49.024;8.366;2023-05-29T15:31:36;27.60;1.00
33067;DHT22;19428;49.024;8.366;2023-05-29T15:34:02;27.40;1.00
33067;DHT22;19428;49.024;8.366;2023-05-29T15:36:27;27.20;1.00
33067;DHT22;19428;49.024;8.366;2023-05-29T15:38:54;27.40;1.00
33067;DHT22;19428;49.024;8.366;2023-05-29T15:41:20;27.30;1.00
33067;DHT22;19428;49.024;8.366;2023-05-29T15:43:46;26.80;1.00
33067;DHT22;19428;49.024;8.366;2023-05-29T15:46:12;26.80;1.00
33067;DHT22;19428;49.024;8.366;2023-05-29T15:48:37;27.40;1.00
33067;DHT22;19428;49.024;8.366;2023-05-29T15:51:03;27.10;1.00
33067;DHT22;19428;49.024;8.366;2023-05-29T15:53:28;27.20;1.00
33067;DHT22;19428;49.024;8.366;2023-05-29T15:55:54;26.70;1.00
33067;DHT22;19428;49.024;8.366;2023-05-29T15:58:20;26.80;1.00
33067;DHT22;19428;49.024;8.366;2023-05-29T16:00:46;27.00;1.00
33067;DHT22;19428;49.024;8.366;2023-05-29T16:03:11;27.00;1.00
33067;DHT22;19428;49.024;8.366;2023-05-29T16:05:37;27.30;1.00